sensor_id;sensor_type;location;lat;lon;timestamp;pressure;altitude;pressure_sealevel;temperature;humidity
73063;BME280;61230;46.328;19.972;2023-12-29T00:02:19;101093.09;;;3.15;100.00
73063;BME280;61230;46.328;19.972;2023-12-29T00:04:47;101094.84;;;3.14;100.00
73063;BME280;61230;46.328;19.972;2023-12-29T00:07:15;101044.38;;;2.84;100.00
73063;BME280;61230;46.328;19.972;2023-12-29T00:09:44;101093.38;;;3.09;100.00
73063;BME280;61230;46.328;19.972;2023-12-29T00:12:12;101049.81;;;2.79;100.00
73063;BME280;61230;46.328;19.972;2023-12-29T00:14:40;101093.22;;;3.12;100.00
73063;BME280;61230;46.328;19.972;2023-12-29T00:17:08;101077.00;;;3.07;100.00
73063;BME280;61230;46.328;19.972;2023-12-29T00:19:36;101044.22;;;2.87;100.00
73063;BME280;61230;46.328;19.972;2023-12-29T00:22:04;101039.88;;;2.87;100.00
73063;BME280;61230;46.328;19.972;2023-12-29T00:24:31;101092.94;;;3.18;100.00
73063;BME280;61230;46.328;19.972;2023-12-29T00:26:59;101048.50;;;2.88;100.00
73063;BME280;61230;46.328;19.972;2023-12-29T00:29:27;101079.59;;;3.07;100.00
73063;BME280;61230;46.328;19.972;2023-12-29T00:32:00;101090.69;;;3.10;100.00
73063;BME280;61230;46.328;19.972;2023-12-29T00:34:31;101090.19;;;3.04;100.00
73063;BME280;61230;46.328;19.972;2023-12-29T00:37:01;101085.03;;;3.02;100.00
73063;BME280;61230;46.328;19.972;2023-12-29T00:39:28;101089.25;;;3.05;100.00
73063;BME280;61230;46.328;19.972;2023-12-29T00:41:59;101090.19;;;3.04;100.00
73063;BME280;61230;46.328;19.972;2023-12-29T00:44:27;101093.53;;;3.06;100.00
73063;BME280;61230;46.328;19.972;2023-12-29T00:46:54;101097.19;;;3.02;100.00
73063;BME280;61230;46.328;19.972;2023-12-29T00:49:22;101000.88;;;2.36;100.00
73063;BME280;61230;46.328;19.972;2023-12-29T00:51:50;101087.19;;;2.94;100.00
73063;BME280;61230;46.328;19.972;2023-12-29T00:54:19;101043.59;;;2.65;100.00
73063;BME280;61230;46.328;19.972;2023-12-29T00:56:50;101091.37;;;2.97;100.00
73063;BME280;61230;46.328;19.972;2023-12-29T00:59:19;101077.09;;;2.88;100.00
73063;BME280;61230;46.328;19.972;2023-12-29T01:01:49;101090.78;;;2.92;100.00
73063;BME280;61230;46.328;19.972;2023-12-29T01:04:17;101038.84;;;2.56;100.00
73063;BME280;61230;46.328;19.972;2023-12-29T01:06:46;101090.47;;;2.80;100.00
73063;BME280;61230;46.328;19.972;2023-12-29T01:09:15;101094.81;;;2.80;100.00
73063;BME280;61230;46.328;19.972;2023-12-29T01:11:42;101096.56;;;2.79;100.00
73063;BME280;61230;46.328;19.972;2023-12-29T01:14:10;101081.75;;;2.81;100.00
73063;BME280;61230;46.328;19.972;2023-12-29T01:16:38;101092.22;;;2.80;100.00
73063;BME280;61230;46.328;19.972;2023-12-29T01:19:05;101088.03;;;2.77;100.00
73063;BME280;61230;46.328;19.972;2023-12-29T01:21:33;101092.38;;;2.77;100.00
73063;BME280;61230;46.328;19.972;2023-12-29T01:24:02;101094.87;;;2.78;100.00
73063;BME280;61230;46.328;19.972;2023-12-29T01:26:31;101087.87;;;2.80;100.00
73063;BME280;61230;46.328;19.972;2023-12-29T01:28:59;101092.91;;;2.83;100.00
73063;BME280;61230;46.328;19.972;2023-12-29T01:31:30;101089.38;;;2.84;100.00
73063;BME280;61230;46.328;19.972;2023-12-29T01:33:59;101085.13;;;2.83;100.00
73063;BME280;61230;46.328;19.972;2023-12-29T01:36:27;101085.13;;;2.83;100.00
73063;BME280;61230;46.328;19.972;2023-12-29T01:38:55;101032.06;;;2.53;100.00
73063;BME280;61230;46.328;19.972;2023-12-29T01:41:23;101034.78;;;2.50;100.00
73063;BME280;61230;46.328;19.972;2023-12-29T01:46:29;101079.28;;;2.78;100.00
73063;BME280;61230;46.328;19.972;2023-12-29T01:48:58;101071.59;;;2.77;100.00
73063;BME280;61230;46.328;19.972;2023-12-29T01:51:27;101064.69;;;2.76;100.00
73063;BME280;61230;46.328;19.972;2023-12-29T01:53:56;101062.94;;;2.76;100.00
73063;BME280;61230;46.328;19.972;2023-12-29T01:56:25;101055.25;;;2.75;100.00
73063;BME280;61230;46.328;19.972;2023-12-29T01:58:55;101058.00;;;2.72;100.00
73063;BME280;61230;46.328;19.972;2023-12-29T02:01:36;101058.84;;;2.72;100.00
73063;BME280;61230;46.328;19.972;2023-12-29T02:04:06;101058.84;;;2.72;100.00
73063;BME280;61230;46.328;19.972;2023-12-29T02:06:35;101053.78;;;2.69;100.00
73063;BME280;61230;46.328;19.972;2023-12-29T02:09:03;101047.81;;;2.67;100.00
73063;BME280;61230;46.328;19.972;2023-12-29T02:11:32;101049.34;;;2.71;100.00
73063;BME280;61230;46.328;19.972;2023-12-29T02:14:00;101044.31;;;2.68;100.00
73063;BME280;61230;46.328;19.972;2023-12-29T02:16:47;101052.53;;;2.59;100.00
73063;BME280;61230;46.328;19.972;2023-12-29T02:19:43;101058.50;;;2.61;100.00
73063;BME280;61230;46.328;19.972;2023-12-29T02:22:13;101050.63;;;2.63;100.00
73063;BME280;61230;46.328;19.972;2023-12-29T02:24:50;101050.25;;;2.70;100.00
73063;BME280;61230;46.328;19.972;2023-12-29T02:27:28;101050.09;;;2.73;100.00
73063;BME280;61230;46.328;19.972;2023-12-29T02:32:27;101043.16;;;2.74;100.00
73063;BME280;61230;46.328;19.972;2023-12-29T02:34:57;100985.00;;;2.42;100.00
73063;BME280;61230;46.328;19.972;2023-12-29T02:37:27;101034.47;;;2.75;100.00
73063;BME280;61230;46.328;19.972;2023-12-29T02:39:58;101031.00;;;2.74;100.00
73063;BME280;61230;46.328;19.972;2023-12-29T02:42:28;101029.31;;;2.73;100.00
73063;BME280;61230;46.328;19.972;2023-12-29T02:44:55;101027.41;;;2.77;100.00
73063;BME280;61230;46.328;19.972;2023-12-29T02:47:23;101026.50;;;2.78;100.00
73063;BME280;61230;46.328;19.972;2023-12-29T02:49:51;101030.00;;;2.77;100.00
73063;BME280;61230;46.328;19.972;2023-12-29T02:52:19;101017.94;;;2.76;100.00
73063;BME280;61230;46.328;19.972;2023-12-29T02:54:47;100992.78;;;2.59;100.00
73063;BME280;61230;46.328;19.972;2023-12-29T02:57:17;101023.22;;;2.74;100.00
73063;BME280;61230;46.328;19.972;2023-12-29T02:59:44;101024.97;;;2.74;100.00
73063;BME280;61230;46.328;19.972;2023-12-29T03:02:12;101030.16;;;2.74;100.00
73063;BME280;61230;46.328;19.972;2023-12-29T03:04:40;101025.06;;;2.72;100.00
73063;BME280;61230;46.328;19.972;2023-12-29T03:07:08;101012.97;;;2.71;100.00
73063;BME280;61230;46.328;19.972;2023-12-29T03:09:36;101020.63;;;2.74;100.00
73063;BME280;61230;46.328;19.972;2023-12-29T03:12:04;101005.94;;;2.73;100.00
73063;BME280;61230;46.328;19.972;2023-12-29T03:14:33;101014.19;;;2.64;100.00
73063;BME280;61230;46.328;19.972;2023-12-29T03:17:01;101010.69;;;2.65;100.00
73063;BME280;61230;46.328;19.972;2023-12-29T03:19:29;101014.03;;;2.67;100.00
73063;BME280;61230;46.328;19.972;2023-12-29T03:21:57;101003.63;;;2.67;100.00
73063;BME280;61230;46.328;19.972;2023-12-29T03:24:24;101015.03;;;2.65;100.00
73063;BME280;61230;46.328;19.972;2023-12-29T03:26:52;101006.22;;;2.67;100.00
73063;BME280;61230;46.328;19.972;2023-12-29T03:29:20;101008.94;;;2.66;100.00
73063;BME280;61230;46.328;19.972;2023-12-29T03:31:47;101012.53;;;2.63;100.00
73063;BME280;61230;46.328;19.972;2023-12-29T03:34:16;101013.56;;;2.59;100.00
73063;BME280;61230;46.328;19.972;2023-12-29T03:36:43;101013.13;;;2.51;100.00
73063;BME280;61230;46.328;19.972;2023-12-29T03:39:11;101006.94;;;2.54;100.00
73063;BME280;61230;46.328;19.972;2023-12-29T03:41:39;101002.56;;;2.54;100.00
73063;BME280;61230;46.328;19.972;2023-12-29T03:44:07;101017.31;;;2.54;100.00
73063;BME280;61230;46.328;19.972;2023-12-29T03:46:35;101018.22;;;2.53;100.00
73063;BME280;61230;46.328;19.972;2023-12-29T03:49:03;101014.50;;;2.58;100.00
73063;BME280;61230;46.328;19.972;2023-12-29T03:51:31;100971.84;;;2.28;100.00
73063;BME280;61230;46.328;19.972;2023-12-29T03:53:58;100969.41;;;2.25;100.00
73063;BME280;61230;46.328;19.972;2023-12-29T03:56:26;101002.31;;;2.42;100.00
73063;BME280;61230;46.328;19.972;2023-12-29T03:58:54;101014.03;;;2.50;100.00
73063;BME280;61230;46.328;19.972;2023-12-29T04:01:21;101016.41;;;2.55;100.00
73063;BME280;61230;46.328;19.972;2023-12-29T04:03:50;101016.41;;;2.55;100.00
73063;BME280;61230;46.328;19.972;2023-12-29T04:06:18;101008.62;;;2.55;100.00
73063;BME280;61230;46.328;19.972;2023-12-29T04:08:46;100958.16;;;2.24;100.00
73063;BME280;61230;46.328;19.972;2023-12-29T04:11:13;101012.50;;;2.46;100.00
73063;BME280;61230;46.328;19.972;2023-12-29T04:13:41;101013.97;;;2.52;100.00
73063;BME280;61230;46.328;19.972;2023-12-29T04:16:09;101018.22;;;2.53;100.00
73063;BME280;61230;46.328;19.972;2023-12-29T04:18:36;101010.37;;;2.54;100.00
73063;BME280;61230;46.328;19.972;2023-12-29T04:21:04;101020.00;;;2.52;100.00
73063;BME280;61230;46.328;19.972;2023-12-29T04:23:32;101017.56;;;2.49;100.00
73063;BME280;61230;46.328;19.972;2023-12-29T04:26:00;101017.59;;;2.48;100.00
73063;BME280;61230;46.328;19.972;2023-12-29T04:28:27;101016.75;;;2.47;100.00
73063;BME280;61230;46.328;19.972;2023-12-29T04:30:56;101024.50;;;2.49;100.00
73063;BME280;61230;46.328;19.972;2023-12-29T04:33:24;101013.34;;;2.47;100.00
73063;BME280;61230;46.328;19.972;2023-12-29T04:35:52;101014.94;;;2.49;100.00
73063;BME280;61230;46.328;19.972;2023-12-29T04:38:19;101022.81;;;2.48;100.00
73063;BME280;61230;46.328;19.972;2023-12-29T04:40:47;100962.06;;;2.16;100.00
73063;BME280;61230;46.328;19.972;2023-12-29T04:43:15;101016.09;;;2.44;100.00
73063;BME280;61230;46.328;19.972;2023-12-29T04:45:42;101015.25;;;2.43;100.00
73063;BME280;61230;46.328;19.972;2023-12-29T04:48:11;101021.28;;;2.44;100.00
73063;BME280;61230;46.328;19.972;2023-12-29T04:50:39;101022.28;;;2.41;100.00
73063;BME280;61230;46.328;19.972;2023-12-29T04:53:07;101022.28;;;2.41;100.00
73063;BME280;61230;46.328;19.972;2023-12-29T04:55:35;101024.88;;;2.41;100.00
73063;BME280;61230;46.328;19.972;2023-12-29T04:58:02;101014.53;;;2.40;100.00
73063;BME280;61230;46.328;19.972;2023-12-29T05:00:31;101022.19;;;2.43;100.00
73063;BME280;61230;46.328;19.972;2023-12-29T05:02:59;101015.84;;;2.31;100.00
73063;BME280;61230;46.328;19.972;2023-12-29T05:05:27;101030.97;;;2.40;100.00
73063;BME280;61230;46.328;19.972;2023-12-29T05:07:54;101025.53;;;2.45;100.00
73063;BME280;61230;46.328;19.972;2023-12-29T05:10:22;100977.00;;;2.11;100.00
73063;BME280;61230;46.328;19.972;2023-12-29T05:12:50;101025.16;;;2.35;100.00
73063;BME280;61230;46.328;19.972;2023-12-29T05:15:17;101015.69;;;2.34;100.00
73063;BME280;61230;46.328;19.972;2023-12-29T05:17:45;101016.37;;;2.38;100.00
73063;BME280;61230;46.328;19.972;2023-12-29T05:20:13;101011.19;;;2.38;100.00
73063;BME280;61230;46.328;19.972;2023-12-29T05:22:40;101006.16;;;2.35;100.00
73063;BME280;61230;46.328;19.972;2023-12-29T05:25:09;101017.44;;;2.33;100.00
73063;BME280;61230;46.328;19.972;2023-12-29T05:27:36;101012.38;;;2.30;100.00
73063;BME280;61230;46.328;19.972;2023-12-29T05:30:06;101013.47;;;2.26;100.00
73063;BME280;61230;46.328;19.972;2023-12-29T05:32:34;101014.47;;;2.24;100.00
73063;BME280;61230;46.328;19.972;2023-12-29T05:35:01;101017.13;;;2.22;100.00
73063;BME280;61230;46.328;19.972;2023-12-29T05:37:29;101026.44;;;2.26;100.00
73063;BME280;61230;46.328;19.972;2023-12-29T05:39:57;100987.97;;;1.99;100.00
73063;BME280;61230;46.328;19.972;2023-12-29T05:42:25;101023.00;;;2.26;100.00
73063;BME280;61230;46.328;19.972;2023-12-29T05:44:52;101023.91;;;2.25;100.00
73063;BME280;61230;46.328;19.972;2023-12-29T05:47:20;101022.16;;;2.25;100.00
73063;BME280;61230;46.328;19.972;2023-12-29T05:49:48;101023.84;;;2.26;100.00
73063;BME280;61230;46.328;19.972;2023-12-29T05:52:16;101022.25;;;2.24;100.00
73063;BME280;61230;46.328;19.972;2023-12-29T05:54:44;101032.69;;;2.22;100.00
73063;BME280;61230;46.328;19.972;2023-12-29T05:57:14;101033.53;;;2.23;100.00
73063;BME280;61230;46.328;19.972;2023-12-29T05:59:42;101032.78;;;2.21;100.00
73063;BME280;61230;46.328;19.972;2023-12-29T06:02:09;101034.59;;;2.19;100.00
73063;BME280;61230;46.328;19.972;2023-12-29T06:04:37;101028.78;;;2.14;100.00
73063;BME280;61230;46.328;19.972;2023-12-29T06:07:05;101041.75;;;2.14;100.00
73063;BME280;61230;46.328;19.972;2023-12-29T06:09:33;101034.88;;;2.13;100.00
73063;BME280;61230;46.328;19.972;2023-12-29T06:12:01;101036.94;;;2.06;100.00
73063;BME280;61230;46.328;19.972;2023-12-29T06:14:28;101034.34;;;2.06;100.00
73063;BME280;61230;46.328;19.972;2023-12-29T06:16:56;101035.31;;;2.04;100.00
73063;BME280;61230;46.328;19.972;2023-12-29T06:19:24;100990.69;;;1.79;100.00
73063;BME280;61230;46.328;19.972;2023-12-29T06:21:52;101035.94;;;2.09;100.00
73063;BME280;61230;46.328;19.972;2023-12-29T06:24:19;101045.34;;;2.11;100.00
73063;BME280;61230;46.328;19.972;2023-12-29T06:26:47;101034.97;;;2.11;100.00
73063;BME280;61230;46.328;19.972;2023-12-29T06:29:15;101034.81;;;2.14;100.00
73063;BME280;61230;46.328;19.972;2023-12-29T06:31:42;101032.22;;;2.14;100.00
73063;BME280;61230;46.328;19.972;2023-12-29T06:34:11;101032.97;;;2.16;100.00
73063;BME280;61230;46.328;19.972;2023-12-29T06:36:39;101032.84;;;2.19;100.00
73063;BME280;61230;46.328;19.972;2023-12-29T06:39:06;101030.94;;;2.23;100.00
73063;BME280;61230;46.328;19.972;2023-12-29T06:41:34;101032.53;;;2.25;100.00
73063;BME280;61230;46.328;19.972;2023-12-29T06:44:02;100945.94;;;1.73;100.00
73063;BME280;61230;46.328;19.972;2023-12-29T06:46:29;101050.44;;;2.31;100.00
73063;BME280;61230;46.328;19.972;2023-12-29T06:48:57;101054.72;;;2.33;100.00
73063;BME280;61230;46.328;19.972;2023-12-29T06:51:25;101054.63;;;2.34;100.00
73063;BME280;61230;46.328;19.972;2023-12-29T06:53:53;101044.47;;;2.29;100.00
73063;BME280;61230;46.328;19.972;2023-12-29T06:56:21;101055.41;;;2.36;100.00
73063;BME280;61230;46.328;19.972;2023-12-29T06:58:50;101051.03;;;2.37;100.00
73063;BME280;61230;46.328;19.972;2023-12-29T07:01:17;101000.31;;;2.12;100.00
73063;BME280;61230;46.328;19.972;2023-12-29T07:03:46;101049.06;;;2.42;100.00
73063;BME280;61230;46.328;19.972;2023-12-29T07:06:13;101002.75;;;2.15;100.00
73063;BME280;61230;46.328;19.972;2023-12-29T07:08:41;101053.13;;;2.47;100.00
73063;BME280;61230;46.328;19.972;2023-12-29T07:11:10;101012.63;;;2.26;100.00
73063;BME280;61230;46.328;19.972;2023-12-29T07:13:39;101039.31;;;2.47;100.00
73063;BME280;61230;46.328;19.972;2023-12-29T07:16:07;101063.91;;;2.57;100.00
73063;BME280;61230;46.328;19.972;2023-12-29T07:18:35;101061.78;;;2.65;100.00
73063;BME280;61230;46.328;19.972;2023-12-29T07:21:03;101067.53;;;2.71;100.00
73063;BME280;61230;46.328;19.972;2023-12-29T07:23:31;101065.41;;;2.79;100.00
73063;BME280;61230;46.328;19.972;2023-12-29T07:25:59;101067.53;;;2.88;100.00
73063;BME280;61230;46.328;19.972;2023-12-29T07:28:27;101060.34;;;2.94;100.00
73063;BME280;61230;46.328;19.972;2023-12-29T07:30:54;101056.53;;;3.01;100.00
73063;BME280;61230;46.328;19.972;2023-12-29T07:33:22;101056.91;;;3.10;100.00
73063;BME280;61230;46.328;19.972;2023-12-29T07:35:51;101069.59;;;3.16;100.00
73063;BME280;61230;46.328;19.972;2023-12-29T07:38:19;101065.44;;;3.29;100.00
73063;BME280;61230;46.328;19.972;2023-12-29T07:40:47;101062.47;;;3.37;100.00
73063;BME280;61230;46.328;19.972;2023-12-29T07:43:17;101063.59;;;3.48;100.00
73063;BME280;61230;46.328;19.972;2023-12-29T07:45:45;101055.97;;;3.61;100.00
73063;BME280;61230;46.328;19.972;2023-12-29T07:48:13;101056.91;;;3.76;100.00
73063;BME280;61230;46.328;19.972;2023-12-29T07:50:41;101062.22;;;3.90;100.00
73063;BME280;61230;46.328;19.972;2023-12-29T07:53:08;101064.06;;;4.03;100.00
73063;BME280;61230;46.328;19.972;2023-12-29T07:55:39;101034.59;;;4.03;100.00
73063;BME280;61230;46.328;19.972;2023-12-29T07:58:07;101052.31;;;4.28;100.00
73063;BME280;61230;46.328;19.972;2023-12-29T08:00:37;101067.59;;;4.49;100.00
73063;BME280;61230;46.328;19.972;2023-12-29T08:03:06;101070.41;;;4.60;100.00
73063;BME280;61230;46.328;19.972;2023-12-29T08:05:34;101023.56;;;4.45;100.00
73063;BME280;61230;46.328;19.972;2023-12-29T08:08:02;101068.25;;;4.83;100.00
73063;BME280;61230;46.328;19.972;2023-12-29T08:10:30;101066.09;;;4.91;100.00
73063;BME280;61230;46.328;19.972;2023-12-29T08:12:59;101070.72;;;5.00;100.00
73063;BME280;61230;46.328;19.972;2023-12-29T08:15:26;101064.75;;;5.13;100.00
73063;BME280;61230;46.328;19.972;2023-12-29T08:17:55;101064.16;;;5.22;100.00
73063;BME280;61230;46.328;19.972;2023-12-29T08:20:23;101023.37;;;5.07;100.00
73063;BME280;61230;46.328;19.972;2023-12-29T08:22:51;101058.53;;;5.44;100.00
73063;BME280;61230;46.328;19.972;2023-12-29T08:25:19;101063.81;;;5.57;100.00
73063;BME280;61230;46.328;19.972;2023-12-29T08:27:47;101020.22;;;5.45;100.00
73063;BME280;61230;46.328;19.972;2023-12-29T08:30:15;101071.75;;;5.84;100.00
73063;BME280;61230;46.328;19.972;2023-12-29T08:32:42;101066.63;;;5.96;100.00
73063;BME280;61230;46.328;19.972;2023-12-29T08:35:10;101072.97;;;6.06;100.00
73063;BME280;61230;46.328;19.972;2023-12-29T08:37:38;101081.06;;;6.16;100.00
73063;BME280;61230;46.328;19.972;2023-12-29T08:40:07;101077.25;;;6.21;100.00
73063;BME280;61230;46.328;19.972;2023-12-29T08:42:35;101038.47;;;6.01;100.00
73063;BME280;61230;46.328;19.972;2023-12-29T08:45:03;101081.47;;;6.36;100.00
73063;BME280;61230;46.328;19.972;2023-12-29T08:47:34;101090.44;;;6.47;100.00
73063;BME280;61230;46.328;19.972;2023-12-29T08:50:02;101097.66;;;6.56;100.00
73063;BME280;61230;46.328;19.972;2023-12-29T08:52:29;101060.28;;;6.41;100.00
73063;BME280;61230;46.328;19.972;2023-12-29T08:54:57;101102.56;;;6.74;100.00
73063;BME280;61230;46.328;19.972;2023-12-29T08:57:25;101103.75;;;6.83;100.00
73063;BME280;61230;46.328;19.972;2023-12-29T08:59:52;101103.88;;;6.94;100.00
73063;BME280;61230;46.328;19.972;2023-12-29T09:02:20;101066.28;;;6.82;100.00
73063;BME280;61230;46.328;19.972;2023-12-29T09:04:48;101102.34;;;7.17;100.00
73063;BME280;61230;46.328;19.972;2023-12-29T09:07:16;101104.44;;;7.24;100.00
73063;BME280;61230;46.328;19.972;2023-12-29T09:09:44;101098.72;;;7.32;100.00
73063;BME280;61230;46.328;19.972;2023-12-29T09:12:11;101103.22;;;7.42;100.00
73063;BME280;61230;46.328;19.972;2023-12-29T09:14:39;101085.72;;;7.56;100.00
73063;BME280;61230;46.328;19.972;2023-12-29T09:17:07;101038.91;;;7.38;100.00
73063;BME280;61230;46.328;19.972;2023-12-29T09:19:34;101083.94;;;7.69;100.00
73063;BME280;61230;46.328;19.972;2023-12-29T09:22:07;101083.63;;;7.73;100.00
73063;BME280;61230;46.328;19.972;2023-12-29T09:24:35;101087.72;;;7.77;100.00
73063;BME280;61230;46.328;19.972;2023-12-29T09:27:03;101083.00;;;7.82;100.00
73063;BME280;61230;46.328;19.972;2023-12-29T09:29:31;101088.03;;;7.85;100.00
73063;BME280;61230;46.328;19.972;2023-12-29T09:31:59;101084.00;;;7.92;100.00
73063;BME280;61230;46.328;19.972;2023-12-29T09:34:26;101081.59;;;8.02;100.00
73063;BME280;61230;46.328;19.972;2023-12-29T09:36:54;101077.56;;;8.09;100.00
73063;BME280;61230;46.328;19.972;2023-12-29T09:39:22;101079.78;;;8.15;100.00
73063;BME280;61230;46.328;19.972;2023-12-29T09:41:56;101071.47;;;8.21;100.00
73063;BME280;61230;46.328;19.972;2023-12-29T09:44:25;101068.22;;;8.30;100.00
73063;BME280;61230;46.328;19.972;2023-12-29T09:46:58;101069.44;;;8.37;100.00
73063;BME280;61230;46.328;19.972;2023-12-29T09:49:37;101062.09;;;8.42;100.00
73063;BME280;61230;46.328;19.972;2023-12-29T09:52:09;101066.66;;;8.51;100.00
73063;BME280;61230;46.328;19.972;2023-12-29T09:54:38;101065.91;;;8.62;100.00
73063;BME280;61230;46.328;19.972;2023-12-29T09:57:08;101065.31;;;8.70;100.00
73063;BME280;61230;46.328;19.972;2023-12-29T09:59:37;101020.28;;;8.52;100.00
73063;BME280;61230;46.328;19.972;2023-12-29T10:02:14;101064.31;;;8.83;100.00
73063;BME280;61230;46.328;19.972;2023-12-29T10:04:45;101042.59;;;8.81;100.00
73063;BME280;61230;46.328;19.972;2023-12-29T10:07:20;101008.47;;;8.70;100.00
73063;BME280;61230;46.328;19.972;2023-12-29T10:09:55;101011.97;;;8.82;100.00
73063;BME280;61230;46.328;19.972;2023-12-29T10:12:24;101049.38;;;9.07;100.00
73063;BME280;61230;46.328;19.972;2023-12-29T10:17:47;101043.06;;;9.21;100.00
73063;BME280;61230;46.328;19.972;2023-12-29T10:20:31;101030.66;;;9.34;100.00
73063;BME280;61230;46.328;19.972;2023-12-29T10:23:08;101029.47;;;9.38;100.00
73063;BME280;61230;46.328;19.972;2023-12-29T10:25:37;101029.13;;;9.43;100.00
73063;BME280;61230;46.328;19.972;2023-12-29T10:28:05;101032.25;;;9.48;100.00
73063;BME280;61230;46.328;19.972;2023-12-29T10:30:34;101033.19;;;9.58;100.00
73063;BME280;61230;46.328;19.972;2023-12-29T10:33:04;101026.38;;;9.66;100.00
73063;BME280;61230;46.328;19.972;2023-12-29T10:35:32;101027.31;;;9.76;100.00
73063;BME280;61230;46.328;19.972;2023-12-29T10:38:11;101025.19;;;9.81;100.00
73063;BME280;61230;46.328;19.972;2023-12-29T10:40:40;101023.13;;;9.85;100.00
73063;BME280;61230;46.328;19.972;2023-12-29T10:43:09;101007.25;;;9.87;100.00
73063;BME280;61230;46.328;19.972;2023-12-29T10:45:37;101017.84;;;9.96;100.00
73063;BME280;61230;46.328;19.972;2023-12-29T10:48:05;101011.53;;;9.99;100.00
73063;BME280;61230;46.328;19.972;2023-12-29T10:50:44;100961.75;;;9.86;100.00
73063;BME280;61230;46.328;19.972;2023-12-29T10:53:16;101000.41;;;10.17;100.00
73063;BME280;61230;46.328;19.972;2023-12-29T10:55:46;100998.00;;;10.25;100.00
73063;BME280;61230;46.328;19.972;2023-12-29T10:58:16;100997.88;;;10.27;100.00
73063;BME280;61230;46.328;19.972;2023-12-29T11:00:45;100996.56;;;10.32;100.00
73063;BME280;61230;46.328;19.972;2023-12-29T11:03:17;100985.38;;;10.40;100.00
73063;BME280;61230;46.328;19.972;2023-12-29T11:05:44;100986.47;;;10.37;100.00
73063;BME280;61230;46.328;19.972;2023-12-29T11:08:20;100981.56;;;10.44;100.00
73063;BME280;61230;46.328;19.972;2023-12-29T11:10:49;100977.69;;;10.48;100.00
73063;BME280;61230;46.328;19.972;2023-12-29T11:13:18;100944.06;;;10.31;100.00
73063;BME280;61230;46.328;19.972;2023-12-29T11:15:47;100935.41;;;10.40;100.00
73063;BME280;61230;46.328;19.972;2023-12-29T11:18:17;100969.25;;;10.65;100.00
73063;BME280;61230;46.328;19.972;2023-12-29T11:20:45;100958.34;;;10.70;100.00
73063;BME280;61230;46.328;19.972;2023-12-29T11:23:14;100948.38;;;10.73;100.00
73063;BME280;61230;46.328;19.972;2023-12-29T11:25:44;100956.16;;;10.75;100.00
73063;BME280;61230;46.328;19.972;2023-12-29T11:28:17;100937.41;;;10.68;100.00
73063;BME280;61230;46.328;19.972;2023-12-29T11:30:45;100950.25;;;10.82;100.00
73063;BME280;61230;46.328;19.972;2023-12-29T11:35:55;100944.59;;;10.87;100.00
73063;BME280;61230;46.328;19.972;2023-12-29T11:38:41;100948.63;;;10.91;100.00
73063;BME280;61230;46.328;19.972;2023-12-29T11:44:12;100934.28;;;11.05;100.00
73063;BME280;61230;46.328;19.972;2023-12-29T11:46:51;100939.31;;;11.08;100.00
73063;BME280;61230;46.328;19.972;2023-12-29T11:49:20;100926.44;;;11.14;100.00
73063;BME280;61230;46.328;19.972;2023-12-29T11:51:47;100929.19;;;11.13;100.00
73063;BME280;61230;46.328;19.972;2023-12-29T11:54:26;100920.78;;;11.19;100.00
73063;BME280;61230;46.328;19.972;2023-12-29T11:56:54;100922.03;;;11.24;100.00
73063;BME280;61230;46.328;19.972;2023-12-29T11:59:23;100918.87;;;11.30;100.00
73063;BME280;61230;46.328;19.972;2023-12-29T12:01:57;100913.34;;;11.33;100.00
73063;BME280;61230;46.328;19.972;2023-12-29T12:04:42;100903.91;;;11.31;100.00
73063;BME280;61230;46.328;19.972;2023-12-29T12:09:49;100906.31;;;11.43;100.00
73063;BME280;61230;46.328;19.972;2023-12-29T12:12:40;100906.88;;;11.47;100.00
73063;BME280;61230;46.328;19.972;2023-12-29T12:15:43;100906.88;;;11.47;100.00
73063;BME280;61230;46.328;19.972;2023-12-29T12:18:11;100904.38;;;11.55;100.00
73063;BME280;61230;46.328;19.972;2023-12-29T12:20:39;100868.19;;;11.38;100.00
73063;BME280;61230;46.328;19.972;2023-12-29T12:23:11;100906.22;;;11.64;100.00
73063;BME280;61230;46.328;19.972;2023-12-29T12:25:43;100900.81;;;11.66;100.00
73063;BME280;61230;46.328;19.972;2023-12-29T12:28:15;100896.25;;;11.68;100.00
73063;BME280;61230;46.328;19.972;2023-12-29T12:30:44;100898.66;;;11.71;100.00
73063;BME280;61230;46.328;19.972;2023-12-29T12:33:13;100900.56;;;11.69;100.00
73063;BME280;61230;46.328;19.972;2023-12-29T12:35:41;100848.22;;;11.45;100.00
73063;BME280;61230;46.328;19.972;2023-12-29T12:38:13;100888.09;;;11.71;100.00
73063;BME280;61230;46.328;19.972;2023-12-29T12:40:41;100882.22;;;11.67;100.00
73063;BME280;61230;46.328;19.972;2023-12-29T12:43:13;100882.97;;;11.69;100.00
73063;BME280;61230;46.328;19.972;2023-12-29T12:46:01;100879.84;;;11.64;100.00
73063;BME280;61230;46.328;19.972;2023-12-29T12:48:36;100884.75;;;11.69;100.00
73063;BME280;61230;46.328;19.972;2023-12-29T12:51:10;100867.66;;;11.63;100.00
73063;BME280;61230;46.328;19.972;2023-12-29T12:53:42;100891.13;;;11.66;100.00
73063;BME280;61230;46.328;19.972;2023-12-29T12:56:12;100888.25;;;11.69;100.00
73063;BME280;61230;46.328;19.972;2023-12-29T12:58:40;100877.78;;;11.68;100.00
73063;BME280;61230;46.328;19.972;2023-12-29T13:01:08;100884.63;;;11.70;100.00
73063;BME280;61230;46.328;19.972;2023-12-29T13:03:38;100882.97;;;11.69;100.00
73063;BME280;61230;46.328;19.972;2023-12-29T13:06:07;100886.81;;;11.65;100.00